createdAt,value
2023-01-26T00:00:02.933Z,2.13
2023-01-26T00:02:31.150Z,2.06
2023-01-26T00:04:59.406Z,2.04
2023-01-26T00:07:27.552Z,2.07
2023-01-26T00:09:55.720Z,2.07
2023-01-26T00:12:25.258Z,2.08
2023-01-26T00:14:53.439Z,2.09
2023-01-26T00:17:28.580Z,1.98
2023-01-26T00:19:58.654Z,2.07
2023-01-26T00:22:28.235Z,2.09
2023-01-26T00:24:56.465Z,2.05
2023-01-26T00:27:25.922Z,2.03
2023-01-26T00:29:54.203Z,2.03
2023-01-26T00:32:22.357Z,2.02
2023-01-26T00:34:50.519Z,1.67
2023-01-26T00:37:18.786Z,1.97
2023-01-26T00:39:47.103Z,2.01
2023-01-26T00:42:16.068Z,1.93
2023-01-26T00:44:45.790Z,1.88
2023-01-26T00:47:15.835Z,2.05
2023-01-26T00:49:44.328Z,1.96
2023-01-26T00:52:13.405Z,2.03
2023-01-26T00:54:41.515Z,2.06
2023-01-26T00:57:09.919Z,2.04
2023-01-26T00:59:38.769Z,2.00
2023-01-26T01:02:08.441Z,1.66
2023-01-26T01:04:36.729Z,1.26
2023-01-26T01:07:05.063Z,1.86
2023-01-26T01:09:33.224Z,1.56
2023-01-26T01:12:01.358Z,1.76
2023-01-26T01:14:29.750Z,1.72
2023-01-26T01:16:57.860Z,1.63
2023-01-26T01:19:27.591Z,1.66
2023-01-26T01:21:55.846Z,1.69
2023-01-26T01:24:24.222Z,1.43
2023-01-26T01:26:52.475Z,1.61
2023-01-26T01:29:20.560Z,1.61
2023-01-26T01:31:48.781Z,1.46
2023-01-26T01:34:17.015Z,1.73
2023-01-26T01:36:46.529Z,1.80
2023-01-26T01:41:43.060Z,1.93
2023-01-26T01:44:17.781Z,1.78
2023-01-26T01:46:50.543Z,1.89
2023-01-26T01:49:24.216Z,1.81
2023-01-26T01:51:57.571Z,2.01
2023-01-26T01:54:30.357Z,2.03
2023-01-26T01:57:02.168Z,1.91
2023-01-26T01:59:32.904Z,2.16
2023-01-26T02:02:01.365Z,2.03
2023-01-26T02:04:29.700Z,2.09
2023-01-26T02:07:01.868Z,1.66
2023-01-26T02:09:51.071Z,2.03
2023-01-26T02:12:23.272Z,2.11
2023-01-26T02:14:54.095Z,2.08
2023-01-26T02:17:22.276Z,1.99
2023-01-26T02:19:58.665Z,1.98
2023-01-26T02:22:42.313Z,1.95
2023-01-26T02:25:21.724Z,1.85
2023-01-26T02:27:51.360Z,1.85
2023-01-26T02:30:20.036Z,1.87
2023-01-26T02:32:48.438Z,1.88
2023-01-26T02:35:16.649Z,1.67
2023-01-26T02:37:44.854Z,1.86
2023-01-26T02:40:20.520Z,0.63
2023-01-26T02:42:49.144Z,1.67
2023-01-26T02:45:18.482Z,1.76
2023-01-26T02:47:46.783Z,1.82
2023-01-26T02:50:14.599Z,1.80
2023-01-26T02:52:42.928Z,1.78
2023-01-26T02:55:22.493Z,1.77
2023-01-26T02:57:53.620Z,1.71
2023-01-26T03:00:23.618Z,1.57
2023-01-26T03:02:53.582Z,1.80
2023-01-26T03:05:22.131Z,1.91
2023-01-26T03:07:50.476Z,1.91
2023-01-26T03:10:18.776Z,1.85
2023-01-26T03:12:47.280Z,1.74
2023-01-26T03:15:34.299Z,1.49
2023-01-26T03:18:36.788Z,1.34
2023-01-26T03:21:25.472Z,1.77
2023-01-26T03:24:10.985Z,1.93
2023-01-26T03:26:59.546Z,1.91
2023-01-26T03:29:28.316Z,1.88
2023-01-26T03:31:59.435Z,1.85
2023-01-26T03:34:29.690Z,1.89
2023-01-26T03:36:57.856Z,1.79
2023-01-26T03:39:43.661Z,1.61
2023-01-26T03:42:29.156Z,1.89
2023-01-26T03:45:14.751Z,1.36
2023-01-26T03:48:01.859Z,2.00
2023-01-26T03:50:47.355Z,1.99
2023-01-26T03:53:34.488Z,2.05
2023-01-26T03:56:20.831Z,2.05
2023-01-26T03:58:51.763Z,1.76
2023-01-26T04:01:26.510Z,1.91
2023-01-26T04:04:15.185Z,1.88
2023-01-26T04:07:03.028Z,1.80
2023-01-26T04:09:32.089Z,1.88
2023-01-26T04:12:00.528Z,2.02
2023-01-26T04:14:49.392Z,1.99
2023-01-26T04:17:36.518Z,1.95
2023-01-26T04:20:24.606Z,1.95
2023-01-26T04:22:52.867Z,1.77
2023-01-26T04:25:23.043Z,1.85
2023-01-26T04:27:51.351Z,1.93
2023-01-26T04:30:20.397Z,1.82
2023-01-26T04:32:48.626Z,1.73
2023-01-26T04:35:18.244Z,1.87
2023-01-26T04:37:46.390Z,1.93
2023-01-26T04:40:15.053Z,1.96
2023-01-26T04:42:43.280Z,1.94
2023-01-26T04:45:12.098Z,1.86
2023-01-26T04:47:40.379Z,1.78
2023-01-26T04:50:10.412Z,1.72
2023-01-26T04:52:40.195Z,1.66
2023-01-26T04:55:08.920Z,1.60
2023-01-26T04:57:37.042Z,1.59
2023-01-26T05:00:06.020Z,1.56
2023-01-26T05:02:34.158Z,1.53
2023-01-26T05:05:02.261Z,0.63
2023-01-26T05:07:30.522Z,1.50
2023-01-26T05:10:00.043Z,1.53
2023-01-26T05:12:38.419Z,1.18
2023-01-26T05:15:07.239Z,1.48
2023-01-26T05:17:36.273Z,1.46
2023-01-26T05:20:04.530Z,1.48
2023-01-26T05:22:32.704Z,1.19
2023-01-26T05:25:02.351Z,0.95
2023-01-26T05:27:30.545Z,1.48
2023-01-26T05:30:00.648Z,1.42
2023-01-26T05:32:29.409Z,1.27
2023-01-26T05:34:57.795Z,1.49
2023-01-26T05:37:26.635Z,1.37
2023-01-26T05:39:54.740Z,1.48
2023-01-26T05:42:24.472Z,1.35
2023-01-26T05:44:52.721Z,1.22
2023-01-26T05:47:21.167Z,1.23
2023-01-26T05:49:49.391Z,1.40
2023-01-26T05:52:20.099Z,1.33
2023-01-26T05:54:49.486Z,1.33
2023-01-26T05:57:18.221Z,1.21
2023-01-26T05:59:47.715Z,1.32
2023-01-26T06:02:16.052Z,1.31
2023-01-26T06:04:44.317Z,1.34
2023-01-26T06:07:13.720Z,1.35
2023-01-26T06:09:41.870Z,1.35
2023-01-26T06:12:15.645Z,1.35
2023-01-26T06:14:46.274Z,1.37
2023-01-26T06:17:18.229Z,1.35
2023-01-26T06:19:46.719Z,1.38
2023-01-26T06:22:15.708Z,1.38
2023-01-26T06:24:44.114Z,1.27
2023-01-26T06:27:15.199Z,1.37
2023-01-26T06:29:44.718Z,1.37
2023-01-26T06:32:13.422Z,1.34
2023-01-26T06:34:43.265Z,1.25
2023-01-26T06:37:11.509Z,1.35
2023-01-26T06:39:40.302Z,1.36
2023-01-26T06:42:09.672Z,1.23
2023-01-26T06:44:37.825Z,1.36
2023-01-26T06:47:07.855Z,0.62
2023-01-26T06:49:36.056Z,1.17
2023-01-26T06:52:23.216Z,1.47
2023-01-26T06:54:51.652Z,1.28
2023-01-26T06:57:19.833Z,1.52
2023-01-26T06:59:48.011Z,1.41
2023-01-26T07:02:19.176Z,1.49
2023-01-26T07:04:47.581Z,1.50
2023-01-26T07:07:17.322Z,0.64
2023-01-26T07:09:45.470Z,1.51
2023-01-26T07:12:13.775Z,1.52
2023-01-26T07:14:41.942Z,1.33
2023-01-26T07:17:10.084Z,1.50
2023-01-26T07:19:38.687Z,1.37
2023-01-26T07:22:06.845Z,1.55
2023-01-26T07:24:36.445Z,1.54
2023-01-26T07:27:04.682Z,1.41
2023-01-26T07:29:32.874Z,1.54
2023-01-26T07:32:01.076Z,1.59
2023-01-26T07:34:29.286Z,1.66
2023-01-26T07:36:57.561Z,1.60
2023-01-26T07:39:25.777Z,1.69
2023-01-26T07:41:55.371Z,1.69
2023-01-26T07:44:23.539Z,1.05
2023-01-26T07:46:51.732Z,1.78
2023-01-26T07:49:19.934Z,1.81
2023-01-26T07:51:48.090Z,1.78
2023-01-26T07:54:16.195Z,1.07
2023-01-26T07:56:44.346Z,1.76
2023-01-26T07:59:14.259Z,1.83
2023-01-26T08:01:42.484Z,1.84
2023-01-26T08:04:11.936Z,1.87
2023-01-26T08:06:40.027Z,1.97
2023-01-26T08:09:08.170Z,1.96
2023-01-26T08:11:36.337Z,2.02
2023-01-26T08:14:04.436Z,1.91
2023-01-26T08:16:34.005Z,1.81
2023-01-26T08:19:03.037Z,1.87
2023-01-26T08:21:31.145Z,1.86
2023-01-26T08:24:02.121Z,1.85
2023-01-26T08:26:30.615Z,1.82
2023-01-26T08:28:59.158Z,1.77
2023-01-26T08:31:28.445Z,1.76
2023-01-26T08:33:58.283Z,1.80
2023-01-26T08:36:26.622Z,1.78
2023-01-26T08:38:55.547Z,1.37
2023-01-26T08:41:23.777Z,1.84
2023-01-26T08:43:53.174Z,1.85
2023-01-26T08:46:21.520Z,1.71
2023-01-26T08:48:49.761Z,1.89
2023-01-26T08:51:19.459Z,1.90
2023-01-26T08:53:47.577Z,1.98
2023-01-26T08:56:15.706Z,1.31
2023-01-26T08:58:43.866Z,1.99
2023-01-26T09:01:15.193Z,1.94
2023-01-26T09:03:43.734Z,1.70
2023-01-26T09:06:14.832Z,2.01
2023-01-26T09:08:44.494Z,0.90
2023-01-26T09:11:13.372Z,1.96
2023-01-26T09:13:42.541Z,1.17
2023-01-26T09:16:17.009Z,1.95
2023-01-26T09:18:45.260Z,1.93
2023-01-26T09:21:13.777Z,1.96
2023-01-26T09:23:42.018Z,1.97
2023-01-26T09:26:11.898Z,1.89
2023-01-26T09:28:40.156Z,2.06
2023-01-26T09:31:10.838Z,2.02
2023-01-26T09:33:39.298Z,2.01
2023-01-26T09:36:09.433Z,1.98
2023-01-26T09:38:37.996Z,1.29
2023-01-26T09:41:09.315Z,1.87
2023-01-26T09:43:44.105Z,1.88
2023-01-26T09:46:23.084Z,1.73
2023-01-26T09:49:03.463Z,1.81
2023-01-26T09:51:36.103Z,1.85
2023-01-26T09:54:11.070Z,1.64
2023-01-26T09:56:39.220Z,1.76
2023-01-26T09:59:20.202Z,1.39
2023-01-26T10:01:55.328Z,1.71
2023-01-26T10:04:33.771Z,1.71
2023-01-26T10:07:04.671Z,1.37
2023-01-26T10:09:36.436Z,1.76
2023-01-26T10:12:08.846Z,1.66
2023-01-26T10:14:41.561Z,1.81
2023-01-26T10:17:16.885Z,1.88
2023-01-26T10:19:51.505Z,0.68
2023-01-26T10:22:27.834Z,1.87
2023-01-26T10:24:58.392Z,1.71
2023-01-26T10:27:26.683Z,1.24
2023-01-26T10:29:56.312Z,1.95
2023-01-26T10:32:24.406Z,1.93
2023-01-26T10:34:53.360Z,1.86
2023-01-26T10:37:24.303Z,1.66
2023-01-26T10:40:01.756Z,1.73
2023-01-26T10:42:31.513Z,1.68
2023-01-26T10:45:03.661Z,1.54
2023-01-26T10:47:31.924Z,1.75
2023-01-26T10:50:24.869Z,1.80
2023-01-26T10:53:00.155Z,1.82
2023-01-26T10:55:29.208Z,0.76
2023-01-26T10:57:57.360Z,1.72
2023-01-26T11:00:30.115Z,1.71
2023-01-26T11:03:18.582Z,1.80
2023-01-26T11:05:48.307Z,1.66
2023-01-26T11:08:33.015Z,1.87
2023-01-26T11:11:01.319Z,1.79
2023-01-26T11:13:29.428Z,2.00
2023-01-26T11:16:06.847Z,1.70
2023-01-26T11:18:44.625Z,1.82
2023-01-26T11:21:17.520Z,2.14
2023-01-26T11:24:02.139Z,2.09
2023-01-26T11:27:01.467Z,2.24
2023-01-26T11:30:02.604Z,2.17
2023-01-26T11:32:42.816Z,2.25
2023-01-26T11:35:23.941Z,2.27
2023-01-26T11:38:01.704Z,2.34
2023-01-26T11:40:39.108Z,2.18
2023-01-26T11:43:48.423Z,2.20
2023-01-26T11:46:42.401Z,2.35
2023-01-26T11:49:26.493Z,2.30
2023-01-26T11:52:03.921Z,2.34
2023-01-26T11:55:00.035Z,2.39
2023-01-26T11:57:36.559Z,2.37
2023-01-26T12:00:28.641Z,2.01
2023-01-26T12:03:03.036Z,2.17
2023-01-26T12:05:42.103Z,2.28
2023-01-26T12:08:18.697Z,2.29
2023-01-26T12:10:51.789Z,2.34
2023-01-26T12:13:28.463Z,2.22
2023-01-26T12:16:02.994Z,2.24
2023-01-26T12:18:50.711Z,2.38
2023-01-26T12:21:25.896Z,2.39
2023-01-26T12:24:02.364Z,2.47
2023-01-26T12:26:34.406Z,2.60
2023-01-26T12:29:09.860Z,2.63
2023-01-26T12:31:47.167Z,2.43
2023-01-26T12:34:15.939Z,2.51
2023-01-26T12:36:53.220Z,2.48
2023-01-26T12:39:30.391Z,2.22
2023-01-26T12:42:14.129Z,2.54
2023-01-26T12:44:44.652Z,2.47
2023-01-26T12:47:19.219Z,2.50
2023-01-26T12:49:53.680Z,2.49
2023-01-26T12:52:28.135Z,2.53
2023-01-26T12:55:04.475Z,2.54
2023-01-26T12:57:38.884Z,2.52
2023-01-26T13:00:18.796Z,2.57
2023-01-26T13:02:50.287Z,2.60
2023-01-26T13:05:28.104Z,2.60
2023-01-26T13:07:57.921Z,2.61
2023-01-26T13:10:47.724Z,2.45
2023-01-26T13:13:30.535Z,2.68
2023-01-26T13:16:40.134Z,2.37
2023-01-26T13:19:38.182Z,2.44
2023-01-26T13:22:42.193Z,2.46
2023-01-26T13:25:21.532Z,2.45
2023-01-26T13:27:58.053Z,2.43
2023-01-26T13:30:35.983Z,2.63
2023-01-26T13:33:12.582Z,2.29
2023-01-26T13:35:41.726Z,2.64
2023-01-26T13:38:19.562Z,2.47
2023-01-26T13:40:51.002Z,2.63
2023-01-26T13:43:29.564Z,2.63
2023-01-26T13:46:05.112Z,2.65
2023-01-26T13:48:44.077Z,2.63
2023-01-26T13:51:16.751Z,2.32
2023-01-26T13:53:49.106Z,2.68
2023-01-26T13:56:27.741Z,1.95
2023-01-26T13:59:04.036Z,2.70
2023-01-26T14:01:32.268Z,2.56
2023-01-26T14:04:05.669Z,2.64
2023-01-26T14:06:35.543Z,2.66
2023-01-26T14:09:06.656Z,2.52
2023-01-26T14:11:36.216Z,2.58
2023-01-26T14:14:04.589Z,2.53
2023-01-26T14:16:34.894Z,1.95
2023-01-26T14:19:14.357Z,2.62
2023-01-26T14:21:51.467Z,2.58
2023-01-26T14:24:22.202Z,2.65
2023-01-26T14:26:51.867Z,2.77
2023-01-26T14:29:23.690Z,2.27
2023-01-26T14:31:53.722Z,2.73
2023-01-26T14:34:24.476Z,2.47
2023-01-26T14:37:07.393Z,2.58
2023-01-26T14:39:35.649Z,2.64
2023-01-26T14:42:06.511Z,2.53
2023-01-26T14:44:34.685Z,1.81
2023-01-26T14:47:08.230Z,1.85
2023-01-26T14:49:44.917Z,2.32
2023-01-26T14:52:24.034Z,2.28
2023-01-26T14:54:54.599Z,2.29
2023-01-26T14:57:26.076Z,2.34
2023-01-26T14:59:56.387Z,2.33
2023-01-26T15:02:26.007Z,2.35
2023-01-26T15:04:59.607Z,2.39
2023-01-26T15:07:37.053Z,2.22
2023-01-26T15:10:26.534Z,2.02
2023-01-26T15:13:00.912Z,2.28
2023-01-26T15:15:30.960Z,2.39
2023-01-26T15:18:03.617Z,2.35
2023-01-26T15:21:00.349Z,2.38
2023-01-26T15:23:30.775Z,2.35
2023-01-26T15:26:06.528Z,1.81
2023-01-26T15:28:37.166Z,1.93
2023-01-26T15:31:06.018Z,2.34
2023-01-26T15:33:53.413Z,2.36
2023-01-26T15:36:48.581Z,1.67
2023-01-26T15:39:18.575Z,2.01
2023-01-26T15:41:48.487Z,2.33
2023-01-26T15:44:20.126Z,2.33
2023-01-26T15:46:48.492Z,1.69
2023-01-26T15:49:20.092Z,2.27
2023-01-26T15:51:48.326Z,2.08
2023-01-26T15:54:16.607Z,2.23
2023-01-26T15:56:44.955Z,2.21
2023-01-26T15:59:13.041Z,2.24
2023-01-26T16:01:42.758Z,2.16
2023-01-26T16:04:13.661Z,1.98
2023-01-26T16:06:41.946Z,2.20
2023-01-26T16:09:10.136Z,2.21
2023-01-26T16:11:43.278Z,2.09
2023-01-26T16:14:14.505Z,2.17
2023-01-26T16:16:44.173Z,2.04
2023-01-26T16:19:20.546Z,2.18
2023-01-26T16:21:54.622Z,1.44
2023-01-26T16:24:22.813Z,2.14
2023-01-26T16:26:51.024Z,2.27
2023-01-26T16:29:19.241Z,2.27
2023-01-26T16:31:48.872Z,2.10
2023-01-26T16:34:17.033Z,2.11
2023-01-26T16:36:45.261Z,2.10
2023-01-26T16:39:13.714Z,1.74
2023-01-26T16:41:41.875Z,1.93
2023-01-26T16:44:14.506Z,1.85
2023-01-26T16:46:42.960Z,1.89
2023-01-26T16:49:15.868Z,1.65
2023-01-26T16:51:45.284Z,1.86
2023-01-26T16:54:13.817Z,1.59
2023-01-26T16:56:42.499Z,1.72
2023-01-26T16:59:10.662Z,1.86
2023-01-26T17:01:39.936Z,1.76
2023-01-26T17:04:08.181Z,1.81
2023-01-26T17:06:37.806Z,1.39
2023-01-26T17:09:06.190Z,1.03
2023-01-26T17:11:34.369Z,1.76
2023-01-26T17:14:03.756Z,1.79
2023-01-26T17:16:33.144Z,1.82
2023-01-26T17:19:01.901Z,1.74
2023-01-26T17:21:30.165Z,1.73
2023-01-26T17:24:00.026Z,1.44
2023-01-26T17:26:28.145Z,1.73
2023-01-26T17:28:57.186Z,1.52
2023-01-26T17:31:26.150Z,1.72
2023-01-26T17:33:55.634Z,1.71
2023-01-26T17:36:23.966Z,1.69
2023-01-26T17:38:52.686Z,1.69
2023-01-26T17:41:22.580Z,1.60
2023-01-26T17:43:51.406Z,1.70
2023-01-26T17:46:21.677Z,1.70
2023-01-26T17:48:51.119Z,0.95
2023-01-26T17:51:21.050Z,1.70
2023-01-26T17:53:50.842Z,1.65
2023-01-26T17:56:22.594Z,1.51
2023-01-26T17:58:52.764Z,1.70
2023-01-26T18:01:22.059Z,1.77
2023-01-26T18:03:50.720Z,1.68
2023-01-26T18:06:19.155Z,1.56
2023-01-26T18:08:47.368Z,1.79
2023-01-26T18:11:16.904Z,1.78
2023-01-26T18:13:46.804Z,1.76
2023-01-26T18:16:17.338Z,1.74
2023-01-26T18:18:45.668Z,1.20
2023-01-26T18:21:15.518Z,1.83
2023-01-26T18:23:46.175Z,1.45
2023-01-26T18:26:14.774Z,0.88
2023-01-26T18:28:43.206Z,1.70
2023-01-26T18:31:15.024Z,1.67
2023-01-26T18:33:43.670Z,1.54
2023-01-26T18:36:13.874Z,1.65
2023-01-26T18:38:43.410Z,1.74
2023-01-26T18:41:12.445Z,1.71
2023-01-26T18:43:41.028Z,1.46
2023-01-26T18:46:10.173Z,1.62
2023-01-26T18:48:39.834Z,1.61
2023-01-26T18:51:08.819Z,1.62
2023-01-26T18:53:43.311Z,1.44
2023-01-26T18:56:14.598Z,1.50
2023-01-26T18:58:43.720Z,1.73
2023-01-26T19:01:14.333Z,1.21
2023-01-26T19:03:47.493Z,1.71
2023-01-26T19:06:20.404Z,1.55
2023-01-26T19:08:55.570Z,1.42
2023-01-26T19:11:23.816Z,1.69
2023-01-26T19:13:52.129Z,1.72
2023-01-26T19:16:20.431Z,1.74
2023-01-26T19:18:50.105Z,1.59
2023-01-26T19:21:24.300Z,1.78
2023-01-26T19:23:54.156Z,1.88
2023-01-26T19:26:25.069Z,1.64
2023-01-26T19:28:54.721Z,1.70
2023-01-26T19:31:23.508Z,1.65
2023-01-26T19:33:54.461Z,1.58
2023-01-26T19:36:23.642Z,0.93
2023-01-26T19:38:52.577Z,1.59
2023-01-26T19:41:22.022Z,1.65
2023-01-26T19:43:50.551Z,1.65
2023-01-26T19:46:19.688Z,1.37
2023-01-26T19:48:47.899Z,1.21
2023-01-26T19:51:20.048Z,1.54
2023-01-26T19:53:49.794Z,1.54
2023-01-26T19:56:20.649Z,1.38
2023-01-26T19:58:51.594Z,1.56
2023-01-26T20:01:20.920Z,1.73
2023-01-26T20:03:50.877Z,1.66
2023-01-26T20:06:22.427Z,1.63
2023-01-26T20:08:51.400Z,1.64
2023-01-26T20:11:21.818Z,1.59
2023-01-26T20:13:54.430Z,1.57
2023-01-26T20:16:22.705Z,1.05
2023-01-26T20:18:51.314Z,1.21
2023-01-26T20:21:20.983Z,0.70
2023-01-26T20:23:54.971Z,1.62
2023-01-26T20:26:25.208Z,1.68
2023-01-26T20:28:56.163Z,1.66
2023-01-26T20:31:28.033Z,1.04
2023-01-26T20:33:58.669Z,1.54
2023-01-26T20:36:29.548Z,1.53
2023-01-26T20:38:58.411Z,1.08
2023-01-26T20:41:29.430Z,1.52
2023-01-26T20:44:00.940Z,1.54
2023-01-26T20:46:31.989Z,1.57
2023-01-26T20:49:00.409Z,1.56
2023-01-26T20:51:33.670Z,1.05
2023-01-26T20:54:02.047Z,1.56
2023-01-26T20:56:30.919Z,1.51
2023-01-26T20:58:59.235Z,1.61
2023-01-26T21:01:27.806Z,1.38
2023-01-26T21:03:56.293Z,1.46
2023-01-26T21:06:26.302Z,1.57
2023-01-26T21:08:59.000Z,1.09
2023-01-26T21:11:30.379Z,1.32
2023-01-26T21:14:00.750Z,1.57
2023-01-26T21:16:30.166Z,1.57
2023-01-26T21:18:58.743Z,1.62
2023-01-26T21:21:27.230Z,1.46
2023-01-26T21:23:56.939Z,1.70
2023-01-26T21:26:27.912Z,1.48
2023-01-26T21:28:57.546Z,1.64
2023-01-26T21:31:27.222Z,1.78
2023-01-26T21:33:56.546Z,1.03
2023-01-26T21:36:26.485Z,1.70
2023-01-26T21:38:58.131Z,1.69
2023-01-26T21:41:45.190Z,1.50
2023-01-26T21:44:15.243Z,1.51
2023-01-26T21:46:45.403Z,1.52
2023-01-26T21:49:14.642Z,1.51
2023-01-26T21:52:00.902Z,1.50
2023-01-26T21:54:30.717Z,1.50
2023-01-26T21:56:59.551Z,1.48
2023-01-26T21:59:26.923Z,1.42
2023-01-26T22:01:56.905Z,1.54
2023-01-26T22:04:28.135Z,1.44
2023-01-26T22:06:56.831Z,1.57
2023-01-26T22:09:25.562Z,1.44
2023-01-26T22:11:55.532Z,1.60
2023-01-26T22:14:26.170Z,1.35
2023-01-26T22:16:54.792Z,1.53
2023-01-26T22:19:23.085Z,1.50
2023-01-26T22:21:51.528Z,1.34
2023-01-26T22:24:19.914Z,1.47
2023-01-26T22:26:48.383Z,0.51
2023-01-26T22:29:18.120Z,1.48
2023-01-26T22:31:46.439Z,1.45
2023-01-26T22:34:14.671Z,1.48
2023-01-26T22:36:42.876Z,1.48
2023-01-26T22:39:12.447Z,1.51
2023-01-26T22:41:40.662Z,1.53
2023-01-26T22:44:09.316Z,1.49
2023-01-26T22:46:38.868Z,1.51
2023-01-26T22:49:07.228Z,1.56
2023-01-26T22:51:37.621Z,1.26
2023-01-26T22:54:06.381Z,1.45
2023-01-26T22:56:34.780Z,1.59
2023-01-26T22:59:03.360Z,1.48
2023-01-26T23:01:33.512Z,1.12
2023-01-26T23:04:03.252Z,1.43
2023-01-26T23:06:31.887Z,1.32
2023-01-26T23:09:01.355Z,1.42
2023-01-26T23:11:30.338Z,1.22
2023-01-26T23:14:00.117Z,1.41
2023-01-26T23:16:29.061Z,1.35
2023-01-26T23:18:58.719Z,1.27
2023-01-26T23:21:29.771Z,1.31
2023-01-26T23:23:58.034Z,1.29
2023-01-26T23:26:26.286Z,1.13
2023-01-26T23:28:54.504Z,1.32
2023-01-26T23:31:23.359Z,1.29
2023-01-26T23:33:51.572Z,1.27
2023-01-26T23:36:20.769Z,1.33
2023-01-26T23:38:50.419Z,0.98
2023-01-26T23:41:19.379Z,1.09
2023-01-26T23:43:47.742Z,0.87
2023-01-26T23:46:15.909Z,1.00
2023-01-26T23:48:44.186Z,0.78
2023-01-26T23:51:13.528Z,1.22
2023-01-26T23:53:43.294Z,1.24
2023-01-26T23:56:20.672Z,1.30
2023-01-26T23:58:48.994Z,1.12
